Latest Weather Observations for Sydney - Observatory Hill

IDN60901

Issued at 9:11 am EDT Wednesday 14 November 2018 (issued every 10 minutes, with the page automatically refreshed every 10 minutes)

About weather observations | Map of Sydney area stations | Latest observations for Sydney area | Other Formats
Station Details ID: 066062 Name: SYDNEY (OBSERVATORY HILL) Lat: -33.86 Lon: 151.21 Height: 39.0 m
Data from the previous 72 hours. | See also: Recent months at Sydney - Observatory Hill

* Apparent temperature (App Temp) for Sydney - Observatory Hill is calculated using temperature observations collected at Sydney - Observatory Hill and wind observations collected at Fort Denison, as wind observations are not currently provided for Sydney - Observatory Hill.

Date/Time
EDT
Temp
°C
App
Temp
°C
Dew
Point
°C
Rel
Hum
%
Delta-T
°C
Wind Press
QNH
hPa
Press
MSL
hPa
Rain since
9am
mm
Dir  Spd
km/h
Gust
km/h
Spd
kts
Gust
kts
14/09:00am 20.0 20.8 14.8 72 3.0 NNE 4 - 2 - 1016.6 1016.5 0.0
14/08:30am 19.6 19.7 14.4 72 3.0 WNW 7 - 4 - 1016.6 1016.5 0.0
14/08:00am 19.7 20.4 14.5 72 3.0 NNW 4 - 2 - 1016.5 1016.4 0.0
14/07:30am 19.7 20.1 14.7 73 2.9 N 6 - 3 - 1016.1 1016.0 0.0
14/07:00am 19.9 20.1 14.7 72 3.0 NE 7 - 4 - 1015.7 1015.6 0.0
14/06:30am 19.6 18.9 14.4 72 3.0 NE 11 - 6 - 1015.3 1015.2 0.0
14/06:00am 19.5 19.2 14.5 73 2.9 NNE 9 - 5 - 1015.1 1015.0 0.0
14/05:30am 19.3 18.2 14.3 73 2.9 NE 13 - 7 - 1014.5 1014.4 0.0
14/05:00am 19.3 18.6 14.3 73 2.9 NE 11 - 6 - 1014.6 1014.5 0.0
14/04:30am 19.3 18.2 14.3 73 2.9 NE 13 - 7 - 1014.4 1014.3 0.0
14/04:00am 19.4 19.0 14.2 72 3.0 NNE 9 - 5 - 1014.5 1014.4 0.0
14/03:30am 19.4 18.4 14.6 74 2.8 ENE 13 - 7 - 1014.4 1014.3 0.0
14/03:00am 19.4 18.3 14.4 73 2.9 ENE 13 - 7 - 1014.6 1014.5 0.0
14/02:30am 19.5 19.2 14.5 73 2.9 NE 9 - 5 - 1015.2 1015.1 0.0
14/02:00am 19.6 19.3 14.4 72 3.0 NE 9 - 5 - 1015.4 1015.3 0.0
14/01:30am 19.8 19.3 14.8 73 2.9 NNE 11 - 6 - 1015.7 1015.6 0.0
14/01:00am 19.8 19.0 15.0 74 2.8 NE 13 - 7 - 1016.0 1015.9 0.0
14/12:30am 19.9 17.8 15.3 75 2.7 NNE 20 - 11 - 1016.1 1016.0 0.0
14/12:00am 20.0 17.6 15.4 75 2.7 NE 22 - 12 - 1016.1 1016.0 0.0
 
Date/Time
EDT
Temp
°C
App
Temp
°C
Dew
Point
°C
Rel
Hum
%
Delta-T
°C
Wind Press
QNH
hPa
Press
MSL
hPa
Rain since
9am
mm
Dir  Spd
km/h
Gust
km/h
Spd
kts
Gust
kts
13/11:30pm 20.2 17.8 15.4 74 2.8 NNE 22 - 12 - 1016.3 1016.2 0.0
13/11:00pm 20.4 17.2 15.4 73 3.0 NNE 26 - 14 - 1016.2 1016.1 0.0
13/10:30pm 20.5 17.0 15.5 73 3.0 NE 28 - 15 - 1016.3 1016.2 0.0
13/10:00pm 20.6 17.5 15.6 73 3.0 NE 26 - 14 - 1016.4 1016.3 0.0
13/09:30pm 20.7 17.2 15.5 72 3.1 NE 28 - 15 - 1016.4 1016.3 0.0
13/09:00pm 20.8 16.9 15.6 72 3.1 NE 30 - 16 - 1016.5 1016.4 0.0
13/08:30pm 20.9 17.4 15.4 71 3.3 NE 28 - 15 - 1016.2 1016.1 0.0
13/08:00pm 20.9 17.5 15.7 72 3.1 NE 28 - 15 - 1015.8 1015.7 0.0
13/07:30pm 21.2 17.8 15.7 71 3.3 NE 28 - 15 - 1016.0 1015.9 0.0
13/07:00pm 21.5 17.4 16.0 71 3.3 NE 32 - 17 - 1015.9 1015.8 0.0
13/06:30pm 21.7 18.0 16.0 70 3.4 NE 30 - 16 - 1015.7 1015.6 0.0
13/06:00pm 21.9 18.0 15.5 67 3.8 NE 30 - 16 - 1015.5 1015.4 0.0
13/05:30pm 22.3 18.3 15.2 64 4.2 NE 30 - 16 - 1015.6 1015.5 0.0
13/05:00pm 22.9 18.8 15.0 61 4.7 NE 30 - 16 - 1015.7 1015.6 0.0
13/04:30pm 23.2 18.6 14.5 58 5.1 NE 32 - 17 - 1015.9 1015.8 0.0
13/04:00pm 23.4 18.7 14.4 57 5.3 NE 32 - 17 - 1015.8 1015.7 0.0
13/03:30pm 23.8 19.3 13.9 54 5.8 NE 30 - 16 - 1016.2 1016.1 0.0
13/03:00pm 23.9 19.0 14.3 55 5.7 NE 33 - 18 - 1016.8 1016.7 0.0
13/02:30pm 23.7 18.9 14.1 55 5.6 NE 32 - 17 - 1017.2 1017.1 0.0
13/02:00pm 23.1 19.5 14.1 57 5.3 NE 26 - 14 - 1017.6 1017.5 0.0
13/01:30pm 23.3 18.6 13.2 53 5.8 NE 30 - 16 - 1017.8 1017.7 0.0
13/01:00pm 24.6 20.2 14.1 52 6.2 NE 30 - 16 - 1018.2 1018.1 0.0
13/12:30pm 23.1 18.8 12.1 50 6.2 NE 26 - 14 - 1018.7 1018.6 0.0
13/12:00pm 23.4 18.6 11.8 48 6.5 ENE 28 - 15 - 1019.0 1018.9 0.0
13/11:30am 23.3 18.9 10.4 44 7.1 NE 24 - 13 - 1019.2 1019.1 0.0
13/11:00am 23.7 19.0 10.7 44 7.2 ENE 26 - 14 - 1019.6 1019.5 0.0
13/10:30am 24.3 19.5 11.6 45 7.2 NE 28 - 15 - 1019.8 1019.6 0.0
13/10:00am 23.9 19.6 10.9 44 7.2 ENE 24 - 13 - 1019.8 1019.6 0.0
13/09:30am 23.8 20.8 12.1 48 6.7 ENE 19 - 10 - 1019.6 1019.5 0.0
13/09:00am 23.3 20.4 11.0 46 6.8 NE 17 - 9 - 1020.1 1019.9 0.6
13/08:30am 22.1 20.3 10.9 49 6.2 NE 11 - 6 - 1020.2 1020.0 0.6
13/08:00am 21.0 18.0 11.9 56 5.1 NNE 19 - 10 - 1020.3 1020.1 0.6
13/07:30am 20.8 19.9 13.7 64 4.1 N 11 - 6 - 1020.0 1019.8 0.6
13/07:00am 19.7 19.3 14.1 70 3.2 N 9 - 5 - 1019.6 1019.5 0.6
13/06:30am 18.6 18.9 13.5 72 2.9 ENE 4 - 2 - 1019.3 1019.2 0.6
13/06:00am 18.6 19.3 13.5 72 2.9 NE 2 - 1 - 1019.2 1019.1 0.6
13/05:30am 18.5 19.1 13.1 71 3.0 NNW 2 - 1 - 1019.1 1019.0 0.6
13/05:00am 18.7 19.3 13.1 70 3.2 N 2 - 1 - 1019.1 1019.0 0.6
13/04:30am 18.8 19.4 13.2 70 3.2 NE 2 - 1 - 1019.2 1019.1 0.6
13/04:00am 18.9 19.2 13.3 70 3.2 N 4 - 2 - 1019.3 1019.2 0.6
13/03:30am 19.0 19.4 13.6 71 3.1 NNE 4 - 2 - 1019.4 1019.3 0.6
13/03:00am 18.4 18.8 13.7 74 2.7 N 4 - 2 - 1019.8 1019.6 0.6
13/02:30am 19.1 19.8 13.5 70 3.2 NNW 2 - 1 - 1019.8 1019.6 0.6
13/02:00am 19.1 19.8 13.5 70 3.2 WNW 2 - 1 - 1020.0 1019.8 0.6
13/01:30am 19.2 19.1 13.4 69 3.3 NE 6 - 3 - 1020.2 1020.0 0.6
13/01:00am 19.1 19.4 13.3 69 3.3 WNW 4 - 2 - 1020.6 1020.4 0.6
13/12:30am 19.2 19.1 13.4 69 3.3 NNE 6 - 3 - 1020.7 1020.5 0.6
13/12:00am 19.4 19.8 13.6 69 3.3 NNE 4 - 2 - 1021.0 1020.8 0.6
 
Date/Time
EDT
Temp
°C
App
Temp
°C
Dew
Point
°C
Rel
Hum
%
Delta-T
°C
Wind Press
QNH
hPa
Press
MSL
hPa
Rain since
9am
mm
Dir  Spd
km/h
Gust
km/h
Spd
kts
Gust
kts
12/11:30pm 19.6 19.5 13.8 69 3.3 NNE 7 - 4 - 1021.2 1021.0 0.6
12/11:00pm 19.7 20.2 13.9 69 3.3 NE 4 - 2 - 1021.3 1021.1 0.6
12/10:30pm 19.8 19.9 14.0 69 3.3 ENE 6 - 3 - 1021.6 1021.4 0.6
12/10:00pm 19.8 19.1 14.2 70 3.2 ENE 11 - 6 - 1021.4 1021.2 0.6
12/09:30pm 19.9 18.4 14.3 70 3.3 ENE 15 - 8 - 1021.3 1021.1 0.6
12/09:00pm 19.9 17.9 14.0 69 3.4 ENE 17 - 9 - 1021.2 1021.0 0.6
12/08:30pm 20.0 18.4 13.9 68 3.5 ENE 15 - 8 - 1021.3 1021.1 0.6
12/08:00pm 20.0 17.7 14.1 69 3.4 ENE 19 - 10 - 1021.0 1020.8 0.6
12/07:30pm 20.1 17.9 13.3 65 3.9 ENE 17 - 9 - 1021.0 1020.8 0.6
12/07:00pm 20.7 17.6 13.4 63 4.2 ENE 22 - 12 - 1020.8 1020.6 0.6
12/06:30pm 20.9 17.7 13.1 61 4.5 ENE 22 - 12 - 1020.4 1020.2 0.6
12/06:00pm 21.2 17.6 12.9 59 4.7 E 24 - 13 - 1020.4 1020.2 0.6
12/05:30pm 21.8 18.5 12.9 57 5.1 E 22 - 12 - 1020.3 1020.1 0.6
12/05:00pm 21.7 17.5 12.5 56 5.2 ENE 26 - 14 - 1020.4 1020.2 0.6
12/04:30pm 21.8 17.8 12.9 57 5.1 ENE 26 - 14 - 1020.4 1020.2 0.6
12/04:00pm 22.3 19.0 12.8 55 5.4 E 22 - 12 - 1020.3 1020.1 0.6
12/03:30pm 22.6 19.1 13.4 56 5.3 E 24 - 13 - 1020.5 1020.3 0.6
12/03:00pm 22.3 18.5 12.5 53 5.6 ENE 24 - 13 - 1020.9 1020.7 0.6
12/02:30pm 22.4 19.2 13.2 56 5.3 E 22 - 12 - 1021.5 1021.3 0.6
12/02:00pm 22.6 19.9 13.4 56 5.3 E 20 - 11 - 1021.9 1021.7 0.6
12/01:30pm 22.6 19.8 13.1 55 5.5 E 20 - 11 - 1022.2 1022.0 0.6
12/01:00pm 22.4 19.4 12.6 54 5.6 ENE 20 - 11 - 1022.4 1022.3 0.6
12/12:30pm 22.8 20.1 13.0 54 5.6 E 19 - 10 - 1022.8 1022.7 0.6
12/12:00pm 22.5 19.8 13.0 55 5.4 E 19 - 10 - 1023.3 1023.2 0.6
12/11:30am 22.9 20.9 12.8 53 5.8 E 15 - 8 - 1023.6 1023.5 0.6
12/11:00am 22.4 20.4 12.6 54 5.6 E 15 - 8 - 1023.8 1023.7 0.4
12/10:30am 22.3 19.9 12.8 55 5.4 E 17 - 9 - 1023.9 1023.8 0.4
12/10:00am 22.6 21.3 13.7 57 5.2 E 13 - 7 - 1023.9 1023.8 0.4
12/09:30am 22.2 21.3 13.8 59 4.9 ESE 11 - 6 - 1024.0 1023.9 0.0
12/09:00am 22.0 21.9 13.9 60 4.7 E 7 - 4 - 1024.1 1024.0 0.0
12/08:30am 21.2 22.2 14.4 65 4.0 W 2 - 1 - 1023.9 1023.8 0.0
12/08:00am 19.0 19.2 14.1 73 2.8 WNW 6 - 3 - 1023.6 1023.5 0.0
12/07:30am 17.2 17.1 13.3 78 2.2 WNW 6 - 3 - 1023.4 1023.3 0.0
12/07:00am 16.5 15.9 13.6 83 1.6 WNW 9 - 5 - 1023.4 1023.3 0.0
12/06:30am 15.7 15.0 13.2 85 1.4 W 9 - 5 - 1023.2 1023.1 0.0
12/06:00am 15.7 14.6 13.0 84 1.5 WNW 11 - 6 - 1023.0 1022.9 0.0
12/05:30am 15.8 15.1 13.1 84 1.5 WNW 9 - 5 - 1022.7 1022.6 0.0
12/05:00am 15.7 14.9 12.8 83 1.6 WNW 9 - 5 - 1022.5 1022.4 0.0
12/04:30am 15.7 14.9 12.8 83 1.6 W 9 - 5 - 1022.3 1022.2 0.0
12/04:00am 15.8 14.9 12.7 82 1.7 WNW 9 - 5 - 1022.1 1021.9 0.0
12/03:30am 15.9 14.2 12.5 80 1.9 WNW 13 - 7 - 1022.1 1021.9 0.0
12/03:00am 16.3 15.1 12.8 80 1.9 W 11 - 6 - 1022.2 1022.0 0.0
12/02:30am 16.7 16.5 13.0 79 2.1 WNW 6 - 3 - 1022.4 1022.3 0.0
12/02:00am 17.4 17.7 13.3 77 2.3 W 4 - 2 - 1022.6 1022.5 0.0
12/01:30am 18.6 19.0 12.4 67 3.5 W 2 - 1 - 1022.7 1022.6 0.0
12/01:00am 18.7 19.1 12.5 67 3.5 NNW 2 - 1 - 1022.7 1022.6 0.0
12/12:30am 18.7 19.1 12.5 67 3.5 E 2 - 1 - 1022.8 1022.7 0.0
12/12:00am 18.7 19.2 12.9 69 3.3 NNE 2 - 1 - 1023.0 1022.9 0.0
 
Date/Time
EDT
Temp
°C
App
Temp
°C
Dew
Point
°C
Rel
Hum
%
Delta-T
°C
Wind Press
QNH
hPa
Press
MSL
hPa
Rain since
9am
mm
Dir  Spd
km/h
Gust
km/h
Spd
kts
Gust
kts
11/11:30pm 18.8 19.3 12.8 68 3.4 N 2 - 1 - 1023.2 1023.1 0.0
11/11:00pm 19.0 19.0 12.5 66 3.6 NE 4 - 2 - 1023.3 1023.2 0.0
11/10:30pm 19.1 18.0 12.1 64 3.9 ENE 9 - 5 - 1023.1 1023.0 0.0
11/10:00pm 19.2 18.3 12.7 66 3.6 ENE 9 - 5 - 1023.0 1022.9 0.0
11/09:30pm 19.4 18.2 12.7 65 3.8 ENE 11 - 6 - 1022.8 1022.7 0.0
11/09:00pm 19.3 17.9 12.3 64 3.9 ENE 11 - 6 - 1022.3 1022.2 0.0
11/08:30pm 19.5 17.6 11.8 61 4.3 ENE 13 - 7 - 1021.9 1021.7 0.0
11/08:00pm 19.6 16.3 11.6 60 4.4 ENE 20 - 11 - 1021.4 1021.2 0.0
11/07:30pm 19.7 15.4 10.9 57 4.8 ENE 24 - 13 - 1021.1 1020.9 0.0
11/07:00pm 19.7 15.1 12.2 62 4.2 ENE 28 - 15 - 1020.5 1020.3 0.0
11/06:30pm 20.0 14.9 12.0 60 4.5 ENE 30 - 16 - 1020.1 1019.9 0.0
11/06:00pm 20.2 15.4 11.7 58 4.7 ENE 28 - 15 - 1020.0 1019.8 0.0
11/05:30pm 20.6 16.3 12.1 58 4.8 ENE 26 - 14 - 1019.9 1019.7 0.0
11/05:00pm 21.0 16.9 11.6 55 5.2 E 24 - 13 - 1019.9 1019.7 0.0
11/04:30pm 21.3 16.6 10.5 50 5.9 E 26 - 14 - 1019.8 1019.6 0.0
11/04:00pm 21.3 16.2 10.5 50 5.9 E 28 - 15 - 1019.8 1019.6 0.0
11/03:30pm 21.5 16.7 11.5 53 5.6 E 28 - 15 - 1020.0 1019.8 0.0
11/03:00pm 22.0 17.3 12.0 53 5.6 E 28 - 15 - 1020.0 1019.8 0.0
11/02:30pm 21.9 17.4 11.3 51 5.9 E 26 - 14 - 1020.2 1020.0 0.0
11/02:00pm 22.3 17.8 11.4 50 6.1 E 26 - 14 - 1020.6 1020.4 0.0
11/01:30pm 22.7 18.8 12.0 50 6.0 E 24 - 13 - 1020.8 1020.6 0.0
11/01:00pm 22.0 18.7 11.7 52 5.8 E 20 - 11 - 1021.0 1020.8 0.0
11/12:30pm 21.7 18.2 12.3 55 5.3 E 22 - 12 - 1021.0 1020.8 0.0
11/12:00pm 21.8 19.0 13.2 58 4.9 ENE 20 - 11 - 1021.3 1021.1 0.0
11/11:30am 21.9 19.1 12.7 56 5.2 ENE 19 - 10 - 1021.6 1021.4 0.0
11/11:00am 21.5 19.7 12.1 55 5.3 E 13 - 7 - 1021.7 1021.5 0.0
11/10:30am 22.5 21.2 11.3 49 6.2 E 9 - 5 - 1021.8 1021.6 0.0
11/10:00am 21.9 20.8 11.9 53 5.6 E 9 - 5 - 1021.8 1021.6 0.0
11/09:30am 20.7 20.8 11.6 56 5.1 W 2 - 1 - 1021.9 1021.7 0.0

Latest Capital City Observations: Canberra | Sydney | Melbourne | Brisbane | Adelaide | Perth | Hobart | Darwin

Other Formats:

Comma delimited format used in spreadsheet applications
http://www.bom.gov.au/fwo/IDN60901/IDN60901.94768.axf

JavaScript Object Notation format (JSON) in row-major order
http://www.bom.gov.au/fwo/IDN60901/IDN60901.94768.json